Time;durP1;ratioP1;P1;durP2;ratioP2;P2;SDS_P1;SDS_P2;PMS_P1;PMS_P2;Temp;Humidity;BMP_temperature;BMP_pressure;BME280_temperature;BME280_humidity;BME280_pressure;Samples;Min_cycle;Max_cycle;Signal;HPM_P1;HPM_P2
2020/12/29 00:00:30;;;;;;;27.87;14.93;;;;;;;;;;5055336;28;20032;-68
2020/12/29 00:02:56;;;;;;;23.37;15.57;;;;;;;;;;5055387;28;20044;-68
2020/12/29 00:05:22;;;;;;;22.57;15.80;;;;;;;;;;5055313;28;20478;-67
2020/12/29 00:07:54;;;;;;;22.50;15.67;;;;;;;;;;5055459;28;20021;-68
2020/12/29 00:10:21;;;;;;;27.95;16.70;;;;;;;;;;5055249;28;20378;-68
2020/12/29 00:12:47;;;;;;;23.83;17.00;;;;;;;;;;5055217;28;20029;-68
2020/12/29 00:15:13;;;;;;;22.70;16.13;;;;;;;;;;5055240;28;20061;-67
2020/12/29 00:17:39;;;;;;;23.60;16.10;;;;;;;;;;5054764;28;20045;-68
2020/12/29 00:20:06;;;;;;;25.73;15.63;;;;;;;;;;5055099;28;20029;-68
2020/12/29 00:22:32;;;;;;;27.53;16.37;;;;;;;;;;5054972;28;20105;-67
2020/12/29 00:24:58;;;;;;;19.80;15.63;;;;;;;;;;5055264;28;20033;-68
2020/12/29 00:27:24;;;;;;;23.60;16.67;;;;;;;;;;5054893;28;20025;-68
2020/12/29 00:29:50;;;;;;;24.63;17.07;;;;;;;;;;5054941;28;20041;-68
2020/12/29 00:32:19;;;;;;;24.90;16.87;;;;;;;;;;5054865;28;20021;-67
2020/12/29 00:34:45;;;;;;;26.17;17.50;;;;;;;;;;5054714;28;20108;-67
2020/12/29 00:37:11;;;;;;;27.00;15.77;;;;;;;;;;5054952;28;20071;-68
2020/12/29 00:39:38;;;;;;;24.77;16.80;;;;;;;;;;5054521;28;20478;-67
2020/12/29 00:42:03;;;;;;;19.77;15.53;;;;;;;;;;5054433;28;20663;-67
2020/12/29 00:44:30;;;;;;;25.93;17.27;;;;;;;;;;5054649;28;20060;-67
2020/12/29 00:46:56;;;;;;;22.63;15.97;;;;;;;;;;5054510;28;20055;-68
2020/12/29 00:49:22;;;;;;;22.67;16.73;;;;;;;;;;5054492;28;20028;-68
2020/12/29 00:51:48;;;;;;;23.43;16.10;;;;;;;;;;5054509;28;20021;-68
2020/12/29 00:54:14;;;;;;;27.37;15.80;;;;;;;;;;5054432;28;20029;-67
2020/12/29 00:56:40;;;;;;;23.63;15.57;;;;;;;;;;5054165;28;20025;-68
2020/12/29 00:59:06;;;;;;;23.03;16.60;;;;;;;;;;5053556;28;20044;-68
2020/12/29 01:01:32;;;;;;;25.90;16.03;;;;;;;;;;5054227;28;20107;-67
2020/12/29 01:03:58;;;;;;;23.33;15.67;;;;;;;;;;5054349;28;20385;-68
2020/12/29 01:06:27;;;;;;;27.63;15.13;;;;;;;;;;5054284;28;20390;-68
2020/12/29 01:08:53;;;;;;;22.80;15.03;;;;;;;;;;5054253;28;20036;-68
2020/12/29 01:11:19;;;;;;;19.67;14.50;;;;;;;;;;5053983;28;20108;-67
2020/12/29 01:13:46;;;;;;;20.93;15.13;;;;;;;;;;5054070;28;20028;-68
2020/12/29 01:16:13;;;;;;;22.47;14.20;;;;;;;;;;5054108;28;20057;-67
2020/12/29 01:18:39;;;;;;;19.03;13.70;;;;;;;;;;5053893;28;20049;-68
2020/12/29 01:21:08;;;;;;;26.60;13.60;;;6.00;84.50;;;;;;5054097;28;20036;-67
2020/12/29 01:23:34;;;;;;;20.57;12.70;;;5.20;87.50;;;;;;5054201;28;20559;-67
2020/12/29 01:25:59;;;;;;;19.67;12.17;;;5.20;87.80;;;;;;5053538;28;20078;-68
2020/12/29 01:28:25;;;;;;;21.70;12.03;;;5.20;87.90;;;;;;5053896;28;20039;-67
2020/12/29 01:30:51;;;;;;;22.00;12.90;;;5.20;87.90;;;;;;5053948;28;20024;-68
2020/12/29 01:33:17;;;;;;;28.90;13.70;;;5.20;88.50;;;;;;5053990;28;20033;-67
2020/12/29 01:35:42;;;;;;;22.10;11.77;;;5.30;88.80;;;;;;5053927;28;20063;-67
2020/12/29 01:38:09;;;;;;;18.80;12.73;;;5.30;88.90;;;;;;5053554;28;20029;-67
2020/12/29 01:40:35;;;;;;;18.37;11.90;;;5.30;89.40;;;;;;5053376;28;20033;-67
2020/12/29 01:43:02;;;;;;;17.33;11.10;;;5.30;88.60;;;;;;5053613;28;20428;-68
2020/12/29 01:45:27;;;;;;;13.50;8.77;;;5.40;88.60;;;;;;5053366;28;20043;-67
2020/12/29 01:47:53;;;;;;;14.40;9.40;;;5.40;88.50;;;;;;5053787;28;20104;-68
2020/12/29 01:50:22;;;;;;;14.70;8.83;;;5.40;88.00;;;;;;5053301;28;20017;-68
2020/12/29 01:52:59;;;;;;;14.77;7.93;;;5.40;87.90;;;;;;5053147;28;20024;-67
2020/12/29 01:55:26;;;;;;;16.50;7.73;;;5.60;87.80;;;;;;5053264;28;20033;-67
2020/12/29 01:57:52;;;;;;;15.67;8.63;;;5.50;87.60;;;;;;5052014;28;20116;-68
2020/12/29 02:00:18;;;;;;;16.60;8.90;;;5.70;88.00;;;;;;5050637;28;20112;-67
2020/12/29 02:02:45;;;;;;;16.67;8.80;;;5.70;87.70;;;;;;5050626;28;20079;-68
2020/12/29 02:05:10;;;;;;;13.90;8.10;;;5.80;87.70;;;;;;5051935;28;20032;-68
2020/12/29 02:07:36;;;;;;;11.70;8.17;;;5.80;87.50;;;;;;5053063;28;20021;-68
2020/12/29 02:10:03;;;;;;;13.37;7.80;;;5.80;87.20;;;;;;5052573;28;20037;-67
2020/12/29 02:12:34;;;;;;;18.80;8.50;;;5.80;87.00;;;;;;5052843;28;20051;-68
2020/12/29 02:15:06;;;;;;;16.80;8.77;;;5.90;87.10;;;;;;5052807;28;20036;-68
2020/12/29 02:17:32;;;;;;;14.63;8.13;;;5.90;86.70;;;;;;5052798;28;20041;-68
2020/12/29 02:19:58;;;;;;;16.13;6.97;;;5.90;87.00;;;;;;5053065;28;20052;-68
2020/12/29 02:22:26;;;;;;;13.80;7.23;;;5.90;87.10;;;;;;5052757;28;20021;-68
2020/12/29 02:24:54;;;;;;;14.10;7.23;;;5.90;87.10;;;;;;5053020;28;20029;-68
2020/12/29 02:27:21;;;;;;;14.40;7.67;;;6.00;87.30;;;;;;5052871;28;20607;-68
2020/12/29 02:29:47;;;;;;;16.73;7.20;;;6.00;87.10;;;;;;5052772;28;20025;-67
2020/12/29 02:32:13;;;;;;;11.80;7.30;;;6.00;86.90;;;;;;5052660;28;20033;-68
2020/12/29 02:34:40;;;;;;;13.30;7.40;;;6.00;86.90;;;;;;5052999;28;20021;-67
2020/12/29 02:37:09;;;;;;;13.63;7.80;;;6.00;86.80;;;;;;5052488;28;20099;-67
2020/12/29 02:39:41;;;;;;;16.77;6.63;;;6.00;86.40;;;;;;5052794;28;20115;-67
2020/12/29 02:42:08;;;;;;;11.67;6.43;;;6.00;86.70;;;;;;5052862;28;20021;-67
2020/12/29 02:44:34;;;;;;;10.10;6.57;;;6.00;86.80;;;;;;5052504;28;20527;-67
2020/12/29 02:47:01;;;;;;;14.67;6.07;;;6.00;86.90;;;;;;5052636;28;20051;-68
2020/12/29 02:49:27;;;;;;;12.00;5.37;;;6.10;86.90;;;;;;5052622;28;20432;-68
2020/12/29 02:51:56;;;;;;;10.00;5.20;;;6.10;86.90;;;;;;5052505;28;20021;-67
2020/12/29 02:54:22;;;;;;;16.17;5.40;;;6.10;86.60;;;;;;5052804;28;20033;-67
2020/12/29 02:56:48;;;;;;;11.30;5.10;;;6.10;86.40;;;;;;5052633;28;20025;-67
2020/12/29 02:59:14;;;;;;;9.93;5.63;;;6.10;86.30;;;;;;5052581;28;20037;-68
2020/12/29 03:01:39;;;;;;;11.27;4.80;;;6.20;86.40;;;;;;5052821;28;20021;-67
2020/12/29 03:04:05;;;;;;;11.20;4.57;;;6.20;86.30;;;;;;5052809;28;20420;-67
2020/12/29 03:06:31;;;;;;;9.17;5.33;;;6.20;86.00;;;;;;5052931;28;20025;-67
2020/12/29 03:08:56;;;;;;;8.80;4.33;;;6.20;86.20;;;;;;5052666;28;20033;-67
2020/12/29 03:11:29;;;;;;;11.27;4.67;;;6.20;86.10;;;;;;5052447;28;20520;-68
2020/12/29 03:13:57;;;;;;;12.60;4.67;;;6.20;86.00;;;;;;5052368;28;20048;-67
2020/12/29 03:16:24;;;;;;;6.67;4.17;;;6.20;86.00;;;;;;5052526;28;20478;-68
2020/12/29 03:18:50;;;;;;;9.50;4.70;;;6.30;86.20;;;;;;5052270;28;20470;-68
2020/12/29 03:21:16;;;;;;;10.20;5.20;;;6.30;86.10;;;;;;5053495;28;20115;-67
2020/12/29 03:23:42;;;;;;;10.27;4.17;;;6.30;86.00;;;;;;5056373;28;20104;-67
2020/12/29 03:26:08;;;;;;;10.77;4.70;;;6.30;85.80;;;;;;5056290;28;20025;-68
2020/12/29 03:28:34;;;;;;;9.57;3.90;;;6.30;86.00;;;;;;5056355;28;20103;-68
2020/12/29 03:31:00;;;;;;;8.27;3.67;;;6.40;85.90;;;;;;5056094;28;20028;-68
2020/12/29 03:33:26;;;;;;;10.73;4.27;;;6.40;85.90;;;;;;5056119;28;20021;-68
2020/12/29 03:35:53;;;;;;;10.90;4.30;;;6.30;85.90;;;;;;5055677;28;20036;-68
2020/12/29 03:38:18;;;;;;;8.90;3.83;;;6.30;86.40;;;;;;5055774;28;20154;-68
2020/12/29 03:40:44;;;;;;;9.63;4.10;;;6.30;86.30;;;;;;5056058;28;20075;-68
2020/12/29 03:43:13;;;;;;;6.93;3.80;;;6.40;86.40;;;;;;5055987;28;20029;-68
2020/12/29 03:45:43;;;;;;;9.40;4.23;;;6.40;86.20;;;;;;5055253;28;20106;-67
2020/12/29 03:48:10;;;;;;;5.97;3.37;;;6.40;86.10;;;;;;5055907;28;20036;-68
2020/12/29 03:50:39;;;;;;;6.30;3.27;;;6.40;86.20;;;;;;5055810;28;20099;-68
2020/12/29 03:53:05;;;;;;;6.23;3.47;;;6.30;86.30;;;;;;5055632;28;20060;-68
2020/12/29 03:55:32;;;;;;;7.03;3.70;;;6.40;86.50;;;;;;5054237;28;20496;-68
2020/12/29 03:57:58;;;;;;;7.17;3.07;;;6.40;86.50;;;;;;5055616;28;20045;-68
2020/12/29 04:00:24;;;;;;;12.93;3.70;;;6.30;86.60;;;;;;5055687;28;20487;-68
2020/12/29 04:02:50;;;;;;;11.07;3.67;;;6.30;86.80;;;;;;5055517;28;20025;-68
2020/12/29 04:05:16;;;;;;;6.67;3.20;;;6.30;86.80;;;;;;5055410;28;20116;-68
2020/12/29 04:07:43;;;;;;;8.50;3.43;;;6.20;86.90;;;;;;5055593;28;20139;-68
2020/12/29 04:10:09;;;;;;;6.07;2.90;;;6.20;86.80;;;;;;5055207;28;20025;-67
2020/12/29 04:12:35;;;;;;;5.77;2.87;;;6.30;87.00;;;;;;5055395;28;20366;-68
2020/12/29 04:15:01;;;;;;;7.83;3.30;;;6.30;86.80;;;;;;5055429;28;20068;-68
2020/12/29 04:17:35;;;;;;;5.63;2.90;;;6.30;86.70;;;;;;5055066;28;20087;-67
2020/12/29 04:20:02;;;;;;;9.10;3.30;;;6.30;86.70;;;;;;5055112;28;20397;-68
2020/12/29 04:22:32;;;;;;;8.53;3.60;;;6.30;86.70;;;;;;5055124;28;20532;-67
2020/12/29 04:24:59;;;;;;;8.27;4.40;;;6.30;86.70;;;;;;5055309;28;20033;-68
2020/12/29 04:27:25;;;;;;;9.67;3.40;;;6.30;86.60;;;;;;5054817;28;20029;-68
2020/12/29 04:29:51;;;;;;;8.07;3.30;;;6.30;86.60;;;;;;5055003;28;20040;-67
2020/12/29 04:32:17;;;;;;;4.43;2.57;;;6.30;86.70;;;;;;5054815;28;20025;-68
2020/12/29 04:34:44;;;;;;;8.77;3.10;;;6.30;86.80;;;;;;5054766;28;20040;-68
2020/12/29 04:37:10;;;;;;;7.00;2.70;;;6.30;87.30;;;;;;5054801;28;20033;-68
2020/12/29 04:39:36;;;;;;;6.10;2.90;;;6.30;86.70;;;;;;5054829;28;20510;-68
2020/12/29 04:42:09;;;;;;;8.33;2.90;;;6.30;86.60;;;;;;5054727;28;20048;-68
2020/12/29 04:44:35;;;;;;;5.17;2.77;;;6.30;86.80;;;;;;5054498;28;20059;-68
2020/12/29 04:47:01;;;;;;;10.07;3.23;;;6.30;87.00;;;;;;5054424;28;20017;-68
2020/12/29 04:49:28;;;;;;;7.37;3.00;;;6.30;87.00;;;;;;5054614;28;20027;-68
2020/12/29 04:51:57;;;;;;;5.60;2.93;;;6.30;86.90;;;;;;5054432;28;20033;-68
2020/12/29 04:54:28;;;;;;;7.03;3.63;;;6.30;87.00;;;;;;5054275;28;20082;-68
2020/12/29 04:56:55;;;;;;;7.03;2.77;;;6.30;87.10;;;;;;5054384;28;20043;-68
2020/12/29 04:59:21;;;;;;;9.30;2.73;;;6.30;87.20;;;;;;5054375;28;20090;-68
2020/12/29 05:01:47;;;;;;;7.70;2.47;;;6.30;87.20;;;;;;5054535;28;20021;-68
2020/12/29 05:04:16;;;;;;;4.80;2.00;;;6.30;87.30;;;;;;5054473;28;20024;-68
2020/12/29 05:06:43;;;;;;;7.37;2.70;;;6.30;87.20;;;;;;5054134;28;20032;-68
2020/12/29 05:09:10;;;;;;;9.90;2.70;;;6.40;87.10;;;;;;5054387;28;20473;-68
2020/12/29 05:11:36;;;;;;;6.57;2.80;;;6.40;87.20;;;;;;5053991;28;20037;-67
2020/12/29 05:14:05;;;;;;;5.77;2.70;;;6.40;87.40;;;;;;5053722;28;20037;-68
2020/12/29 05:16:36;;;;;;;11.20;2.50;;;6.40;87.50;;;;;;5053981;28;20029;-68
2020/12/29 05:19:09;;;;;;;8.23;2.70;;;6.40;87.50;;;;;;5053892;28;20093;-68
2020/12/29 05:21:36;;;;;;;4.38;2.42;;;6.40;87.60;;;;;;5053974;28;20025;-68
2020/12/29 05:24:18;;;;;;;8.40;2.97;;;6.40;87.60;;;;;;5054042;28;20025;-68
2020/12/29 05:26:48;;;;;;;8.83;2.57;;;6.40;87.70;;;;;;5053321;28;20441;-68
2020/12/29 05:29:14;;;;;;;7.67;2.83;;;6.40;87.80;;;;;;5053708;28;20014;-68
2020/12/29 05:31:45;;;;;;;8.40;2.63;;;6.50;88.00;;;;;;5053964;28;20551;-68
2020/12/29 05:34:25;;;;;;;8.40;3.10;;;6.40;88.50;;;;;;5053613;28;20021;-68
2020/12/29 05:36:52;;;;;;;6.27;2.93;;;6.40;88.40;;;;;;5053826;28;20544;-68
2020/12/29 05:39:22;;;;;;;3.77;2.67;;;6.40;88.50;;;;;;5053875;28;20079;-68
2020/12/29 05:41:50;;;;;;;6.77;3.40;;;6.40;88.70;;;;;;5053398;28;20025;-67
2020/12/29 05:44:33;;;;;;;4.80;3.17;;;6.40;88.70;;;;;;5053164;28;20040;-68
2020/12/29 05:47:00;;;;;;;7.80;4.55;;;6.40;89.50;;;;;;5053780;28;20362;-68
2020/12/29 05:49:27;;;;;;;8.43;4.23;;;6.40;88.90;;;;;;5053618;28;20033;-68
2020/12/29 05:51:55;;;;;;;10.40;3.80;;;6.40;89.10;;;;;;5053650;28;20381;-68
2020/12/29 05:54:23;;;;;;;7.07;3.60;;;6.50;89.60;;;;;;5053488;28;20067;-68
2020/12/29 05:56:50;;;;;;;7.87;3.60;;;6.40;89.10;;;;;;5053062;28;20029;-68
2020/12/29 05:59:17;;;;;;;11.27;3.70;;;6.40;89.10;;;;;;5053306;28;20481;-68
2020/12/29 06:01:45;;;;;;;7.17;3.87;;;6.40;89.10;;;;;;5053349;28;20424;-68
2020/12/29 06:04:12;;;;;;;7.43;3.40;;;6.40;89.00;;;;;;5053242;28;20025;-68
2020/12/29 06:06:42;;;;;;;9.47;3.50;;;6.50;89.10;;;;;;5053276;28;20036;-68
2020/12/29 06:09:11;;;;;;;10.67;4.33;;;6.50;89.10;;;;;;5053320;28;20122;-68
2020/12/29 06:11:47;;;;;;;9.03;4.53;;;6.50;89.30;;;;;;5052994;28;20028;-67
2020/12/29 06:14:24;;;;;;;8.17;4.57;;;6.40;89.30;;;;;;5053301;28;20032;-68
2020/12/29 06:16:54;;;;;;;8.47;4.50;;;6.50;89.10;;;;;;5052631;28;20028;-68
2020/12/29 06:19:25;;;;;;;11.27;4.60;;;6.50;89.10;;;;;;5053187;28;20128;-68
2020/12/29 06:22:07;;;;;;;8.93;4.97;;;6.50;89.40;;;;;;5053166;28;20021;-68
2020/12/29 06:24:37;;;;;;;16.33;9.60;;;6.40;90.40;;;;;;5053192;28;20464;-67
2020/12/29 06:27:05;;;;;;;15.73;9.00;;;6.40;90.30;;;;;;5053243;28;20474;-67
2020/12/29 06:29:46;;;;;;;15.03;8.27;;;6.40;90.30;;;;;;5053139;28;20017;-67
2020/12/29 06:32:15;;;;;;;12.47;7.83;;;6.40;90.30;;;;;;5052709;28;20092;-68
2020/12/29 06:34:43;;;;;;;15.27;8.00;;;6.30;90.30;;;;;;5052644;28;20536;-67
2020/12/29 06:37:12;;;;;;;26.10;15.87;;;6.20;90.30;;;;;;5052562;28;20067;-67
2020/12/29 06:39:42;;;;;;;15.37;9.23;;;6.30;90.30;;;;;;5054305;28;20021;-67
2020/12/29 06:42:09;;;;;;;16.60;8.60;;;6.30;90.30;;;;;;5053020;28;20016;-67
2020/12/29 06:44:35;;;;;;;18.17;11.27;;;6.30;90.50;;;;;;5052776;28;20028;-67
2020/12/29 06:47:12;;;;;;;17.70;12.73;;;6.30;90.30;;;;;;5052755;28;20021;-67
2020/12/29 06:49:43;;;;;;;18.77;13.57;;;6.30;90.30;;;;;;5052961;28;20036;-67
2020/12/29 06:52:27;;;;;;;16.30;10.57;;;6.20;90.30;;;;;;5052828;28;20078;-68
2020/12/29 06:54:57;;;;;;;15.13;10.80;;;6.30;90.30;;;;;;5053560;28;20099;-67
2020/12/29 06:57:48;;;;;;;16.63;10.50;;;6.30;90.30;;;;;;5056468;28;20037;-68
2020/12/29 07:00:14;;;;;;;16.57;9.93;;;6.30;90.40;;;;;;5056553;28;20033;-68
2020/12/29 07:02:41;;;;;;;14.17;9.90;;;6.30;90.30;;;;;;5056494;28;20035;-68
2020/12/29 07:05:18;;;;;;;12.30;8.50;;;6.30;90.40;;;;;;5056615;28;20029;-68
2020/12/29 07:07:51;;;;;;;17.27;8.67;;;6.30;90.30;;;;;;5056426;28;20025;-68
2020/12/29 07:10:17;;;;;;;15.13;10.25;;;6.30;90.30;;;;;;5056481;28;20104;-68
2020/12/29 07:12:48;;;;;;;42.43;21.53;;;6.30;90.30;;;;;;5056575;28;20054;-68
2020/12/29 07:15:15;;;;;;;26.20;15.23;;;6.30;90.40;;;;;;5056601;28;20389;-68
2020/12/29 07:17:53;;;;;;;23.63;11.70;;;6.20;90.40;;;;;;5056039;28;20084;-68
2020/12/29 07:20:22;;;;;;;23.67;12.57;;;6.20;90.40;;;;;;5056265;28;20401;-68
2020/12/29 07:22:55;;;;;;;22.33;13.47;;;6.20;90.40;;;;;;5056361;28;20021;-68
2020/12/29 07:25:24;;;;;;;25.77;14.90;;;6.20;90.40;;;;;;5055876;28;20595;-68
2020/12/29 07:27:52;;;;;;;23.40;16.10;;;6.20;90.40;;;;;;5055890;28;20029;-68
2020/12/29 07:30:18;;;;;;;21.33;15.77;;;6.30;90.60;;;;;;5055962;28;20427;-65
2020/12/29 07:32:44;;;;;;;22.33;15.10;;;6.20;90.60;;;;;;5053108;28;20104;-66
2020/12/29 07:35:12;;;;;;;16.97;10.27;;;6.20;90.70;;;;;;5053034;28;20128;-65
2020/12/29 07:37:40;;;;;;;17.20;10.53;;;6.20;90.60;;;;;;5053456;28;20022;-65
2020/12/29 07:40:07;;;;;;;14.17;9.80;;;6.20;90.60;;;;;;5055626;28;20108;-66
2020/12/29 07:42:33;;;;;;;16.00;9.53;;;6.30;90.60;;;;;;5055921;28;20035;-66
2020/12/29 07:44:58;;;;;;;16.93;11.33;;;6.20;90.60;;;;;;5055534;28;20029;-66
2020/12/29 07:47:24;;;;;;;14.93;9.30;;;6.30;90.60;;;;;;5055327;28;20127;-65
2020/12/29 07:49:50;;;;;;;16.87;10.33;;;6.30;90.70;;;;;;5053915;28;20029;-65
2020/12/29 07:52:23;;;;;;;12.90;8.97;;;6.30;90.90;;;;;;5053859;28;20106;-65
2020/12/29 07:55:05;;;;;;;14.80;8.70;;;6.30;90.80;;;;;;5053364;28;20530;-65
2020/12/29 07:57:32;;;;;;;15.27;8.63;;;6.30;90.60;;;;;;5053659;28;20025;-64
2020/12/29 08:00:13;;;;;;;15.50;7.57;;;6.30;90.70;;;;;;5053913;28;20382;-64
2020/12/29 08:02:39;;;;;;;11.80;7.97;;;6.40;90.60;;;;;;5053319;28;20044;-66
2020/12/29 08:05:06;;;;;;;13.90;8.07;;;6.40;90.60;;;;;;5054146;28;20127;-66
2020/12/29 08:07:31;;;;;;;13.57;8.40;;;6.40;90.60;;;;;;5054336;28;20576;-65
2020/12/29 08:09:57;;;;;;;14.67;8.70;;;6.40;90.60;;;;;;5055081;28;20108;-66
2020/12/29 08:12:23;;;;;;;15.93;8.97;;;6.40;90.60;;;;;;5055295;28;20394;-65
2020/12/29 08:14:49;;;;;;;14.97;8.97;;;6.40;90.40;;;;;;5055365;28;20024;-65
2020/12/29 08:17:15;;;;;;;15.20;9.30;;;6.40;90.40;;;;;;5054695;28;20059;-65
2020/12/29 08:19:40;;;;;;;15.23;8.67;;;6.40;90.30;;;;;;5054940;28;20029;-65
2020/12/29 08:22:08;;;;;;;14.93;8.93;;;6.50;90.40;;;;;;5054819;28;20021;-65
2020/12/29 08:24:34;;;;;;;15.20;8.50;;;6.40;90.30;;;;;;5054546;28;20397;-66
2020/12/29 08:27:01;;;;;;;21.77;12.67;;;6.40;90.30;;;;;;5054955;28;20020;-64
2020/12/29 08:29:30;;;;;;;24.10;13.13;;;6.50;90.30;;;;;;5051922;28;20021;-65
2020/12/29 08:32:05;;;;;;;25.27;15.93;;;6.50;90.20;;;;;;5052025;28;20040;-65
2020/12/29 08:34:34;;;;;;;24.93;16.70;;;6.50;90.20;;;;;;5054510;28;20100;-65
2020/12/29 08:37:02;;;;;;;22.27;14.97;;;6.50;90.10;;;;;;5054921;28;20087;-65
2020/12/29 08:39:33;;;;;;;24.33;14.70;;;6.50;90.20;;;;;;5054654;28;20051;-65
2020/12/29 08:42:02;;;;;;;24.13;14.53;;;6.50;90.20;;;;;;5052574;28;20025;-66
2020/12/29 08:44:31;;;;;;;35.43;23.53;;;6.50;90.40;;;;;;5053975;28;20389;-65
2020/12/29 08:46:56;;;;;;;22.00;13.80;;;6.50;90.40;;;;;;5052949;28;20505;-66
2020/12/29 08:49:30;;;;;;;22.60;12.37;;;6.50;90.50;;;;;;5053522;28;20049;-65
2020/12/29 08:51:56;;;;;;;16.27;10.10;;;6.60;90.50;;;;;;5053824;28;20033;-65
2020/12/29 08:54:22;;;;;;;14.80;8.90;;;6.60;90.50;;;;;;5053966;28;20025;-66
2020/12/29 08:56:48;;;;;;;17.60;9.33;;;6.60;90.50;;;;;;5053482;28;20450;-66
2020/12/29 08:59:14;;;;;;;11.77;8.40;;;6.60;90.60;;;;;;5054051;28;20075;-65
2020/12/29 09:01:42;;;;;;;15.67;8.67;;;6.60;90.50;;;;;;5053867;28;20029;-64
2020/12/29 09:04:33;;;;;;;12.33;8.33;;;6.60;90.50;;;;;;5053451;28;20099;-65
2020/12/29 09:07:03;;;;;;;15.40;8.50;;;6.60;90.40;;;;;;5053818;28;20426;-65
2020/12/29 09:09:30;;;;;;;14.13;8.60;;;6.60;90.40;;;;;;5053534;28;20025;-65
2020/12/29 09:12:12;;;;;;;14.97;9.93;;;6.60;90.30;;;;;;5053800;28;20020;-66
2020/12/29 09:15:02;;;;;;;13.47;9.20;;;6.60;90.30;;;;;;5053675;28;20539;-65
2020/12/29 09:17:36;;;;;;;12.47;8.90;;;6.60;90.50;;;;;;5053373;28;20064;-65
2020/12/29 09:20:28;;;;;;;14.90;9.57;;;6.60;90.20;;;;;;5052612;28;20055;-65
2020/12/29 09:23:12;;;;;;;14.15;8.80;;;6.60;90.10;;;;;;5053754;28;20078;-65
2020/12/29 09:25:39;;;;;;;18.33;11.67;;;6.60;90.10;;;;;;5053714;28;20036;-64
2020/12/29 09:28:19;;;;;;;22.80;14.83;;;6.60;90.10;;;;;;5053995;28;20040;-64
2020/12/29 09:31:09;;;;;;;19.23;12.03;;;6.70;90.30;;;;;;5053939;28;20428;-65
2020/12/29 09:33:38;;;;;;;12.70;8.57;;;;;;;;;;5053560;28;20513;-64
2020/12/29 09:36:07;;;;;;;14.10;8.07;;;6.70;90.40;;;;;;5053742;28;20029;-64
2020/12/29 09:38:34;;;;;;;10.80;6.73;;;6.70;90.80;;;;;;5053756;28;20037;-64
2020/12/29 09:41:01;;;;;;;14.83;8.70;;;6.60;90.40;;;;;;5053649;28;20520;-65
2020/12/29 09:43:27;;;;;;;13.93;8.60;;;6.60;90.40;;;;;;5053731;28;20533;-64
2020/12/29 09:45:57;;;;;;;13.77;8.97;;;6.70;90.50;;;;;;5053540;28;20519;-64
2020/12/29 09:48:23;;;;;;;17.30;9.63;;;6.70;90.50;;;;;;5053455;28;20059;-64
2020/12/29 09:50:48;;;;;;;13.23;8.73;;;6.70;90.50;;;;;;5053395;28;20025;-64
2020/12/29 09:53:14;;;;;;;13.90;7.80;;;6.60;90.60;;;;;;5053947;28;20024;-63
2020/12/29 09:55:40;;;;;;;10.17;6.73;;;6.60;90.60;;;;;;5053349;28;20052;-64
2020/12/29 09:58:06;;;;;;;13.33;6.13;;;6.60;90.70;;;;;;5050844;28;20453;-64
2020/12/29 10:00:32;;;;;;;10.30;6.27;;;6.60;90.70;;;;;;5050437;28;20033;-64
2020/12/29 10:02:59;;;;;;;9.80;5.60;;;6.60;90.60;;;;;;5051803;28;20028;-64
2020/12/29 10:05:25;;;;;;;10.87;6.07;;;6.60;90.50;;;;;;5052873;28;20033;-64
2020/12/29 10:07:50;;;;;;;12.90;6.67;;;6.60;90.40;;;;;;5053488;28;20124;-64
2020/12/29 10:10:16;;;;;;;8.93;5.93;;;6.60;90.30;;;;;;5053326;28;20517;-64
2020/12/29 10:12:42;;;;;;;9.90;6.67;;;6.70;90.30;;;;;;5053418;28;20025;-64
2020/12/29 10:15:09;;;;;;;10.90;6.60;;;6.70;90.40;;;;;;5052928;28;20040;-64
2020/12/29 10:17:36;;;;;;;8.63;6.47;;;6.70;90.40;;;;;;5052754;28;20045;-64
2020/12/29 10:20:03;;;;;;;10.97;6.40;;;6.70;90.40;;;;;;5053097;28;20041;-64
2020/12/29 10:22:29;;;;;;;10.80;6.27;;;6.70;90.20;;;;;;5051194;28;20029;-65
2020/12/29 10:24:55;;;;;;;12.10;6.43;;;6.80;90.20;;;;;;5050256;28;20037;-64
2020/12/29 10:27:21;;;;;;;10.37;7.00;;;6.80;90.10;;;;;;5050205;28;20029;-64
2020/12/29 10:29:46;;;;;;;10.43;6.27;;;6.90;90.20;;;;;;5051840;28;20118;-64
2020/12/29 10:32:12;;;;;;;8.23;6.47;;;6.90;90.30;;;;;;5052925;28;20033;-64
2020/12/29 10:34:38;;;;;;;11.20;6.97;;;6.90;90.30;;;;;;5052873;28;20029;-64
2020/12/29 10:37:04;;;;;;;10.77;6.70;;;6.90;90.20;;;;;;5053001;28;20029;-64
2020/12/29 10:39:29;;;;;;;10.20;6.07;;;7.00;90.10;;;;;;5052846;28;20037;-64
2020/12/29 10:41:55;;;;;;;9.63;6.23;;;7.00;90.10;;;;;;5052645;28;20033;-64
2020/12/29 10:44:21;;;;;;;22.87;11.33;;;7.10;90.10;;;;;;5052443;28;20061;-64
2020/12/29 10:46:47;;;;;;;15.23;9.37;;;7.10;90.00;;;;;;5052831;28;20029;-64
2020/12/29 10:49:16;;;;;;;10.90;6.27;;;7.20;90.10;;;;;;5052846;28;20425;-64
2020/12/29 10:51:42;;;;;;;8.93;5.83;;;7.30;90.20;;;;;;5052510;28;20079;-64
2020/12/29 10:54:07;;;;;;;9.80;6.17;;;7.30;90.10;;;;;;5052852;28;20029;-64
2020/12/29 10:56:35;;;;;;;34.67;20.43;;;7.30;90.20;;;;;;5052564;28;20051;-64
2020/12/29 10:59:01;;;;;;;21.53;12.83;;;7.40;90.10;;;;;;5052049;28;20094;-64
2020/12/29 11:01:26;;;;;;;16.13;10.43;;;7.30;90.10;;;;;;5052536;28;20029;-64
2020/12/29 11:03:52;;;;;;;15.33;8.43;;;7.40;90.10;;;;;;5052580;28;20129;-64
2020/12/29 11:06:19;;;;;;;13.23;8.93;;;7.40;90.00;;;;;;5052810;28;20025;-64
2020/12/29 11:08:47;;;;;;;11.80;9.60;;;7.40;90.00;;;;;;5051612;28;20044;-64
2020/12/29 11:11:14;;;;;;;11.83;7.63;;;7.40;90.00;;;;;;5050472;28;20359;-65
2020/12/29 11:13:39;;;;;;;10.27;7.10;;;7.40;90.00;;;;;;5050740;28;20053;-64
2020/12/29 11:16:06;;;;;;;11.90;7.13;;;;;;;;;;5051263;28;20049;-64
2020/12/29 11:18:32;;;;;;;13.43;7.87;;;;;;;;;;5051665;28;20049;-64
2020/12/29 11:20:58;;;;;;;14.07;6.97;;;;;;;;;;5050517;28;20083;-65
2020/12/29 11:23:24;;;;;;;12.33;7.40;;;;;;;;;;5050562;28;20055;-65
2020/12/29 11:25:50;;;;;;;12.43;7.77;;;;;;;;;;5052314;28;20071;-64
2020/12/29 11:28:17;;;;;;;15.83;9.73;;;;;;;;;;5052294;28;20052;-64
2020/12/29 11:30:44;;;;;;;41.47;29.23;;;;;;;;;;5052350;28;20526;-64
2020/12/29 11:33:10;;;;;;;40.37;28.53;;;;;;;;;;5052167;28;20028;-69
2020/12/29 11:35:36;;;;;;;21.57;14.10;;;;;;;;;;5050998;28;20033;-65
2020/12/29 11:38:02;;;;;;;16.47;9.50;;;;;;;;;;5051213;28;20517;-65
2020/12/29 11:40:28;;;;;;;14.17;9.90;;;;;;;;;;5052293;28;20079;-64
2020/12/29 11:42:54;;;;;;;14.10;11.07;;;;;;;;;;5054469;28;20048;-64
2020/12/29 11:45:21;;;;;;;12.63;8.57;;;;;;;;;;5055716;28;20033;-65
2020/12/29 11:47:48;;;;;;;13.53;7.93;;;;;;;;;;5055809;28;20378;-64
2020/12/29 11:50:14;;;;;;;12.77;7.67;;;;;;;;;;5055573;28;20036;-65
2020/12/29 11:52:40;;;;;;;13.77;8.10;;;;;;;;;;5055253;28;20021;-65
2020/12/29 11:55:06;;;;;;;12.97;7.40;;;;;;;;;;5055367;28;20025;-65
2020/12/29 11:57:32;;;;;;;8.30;5.73;;;;;;;;;;5054910;28;20462;-65
2020/12/29 11:59:58;;;;;;;8.60;6.23;;;;;;;;;;5053875;28;20037;-65
2020/12/29 12:02:24;;;;;;;10.60;6.37;;;;;;;;;;5054746;28;20021;-64
2020/12/29 12:04:50;;;;;;;11.80;6.27;;;;;;;;;;5054331;28;20053;-65
2020/12/29 12:07:16;;;;;;;11.20;6.00;;;;;;;;;;5054810;28;20476;-65
2020/12/29 12:09:42;;;;;;;11.40;6.27;;;;;;;;;;5053952;28;20056;-65
2020/12/29 12:12:08;;;;;;;9.90;5.80;;;;;;;;;;5054130;28;20027;-65
2020/12/29 12:14:34;;;;;;;12.17;7.23;;;;;;;;;;5054207;28;20032;-65
2020/12/29 12:17:00;;;;;;;11.53;7.27;;;;;;;;;;5054484;28;20041;-65
2020/12/29 12:19:26;;;;;;;12.20;7.37;;;;;;;;;;5054947;28;20039;-65
2020/12/29 12:21:52;;;;;;;12.20;6.20;;;;;;;;;;5054922;28;20021;-66
2020/12/29 12:24:18;;;;;;;11.97;7.40;;;;;;;;;;5054396;28;20381;-65
2020/12/29 12:26:44;;;;;;;14.90;9.80;;;;;;;;;;5054281;28;20370;-65
2020/12/29 12:29:10;;;;;;;13.87;9.90;;;;;;;;;;5054838;28;20466;-64
2020/12/29 12:31:36;;;;;;;21.47;14.73;;;;;;;;;;5053386;28;20024;-64
2020/12/29 12:34:03;;;;;;;20.43;13.13;;;;;;;;;;5054602;28;20107;-65
2020/12/29 12:36:29;;;;;;;13.33;8.47;;;;;;;;;;5054411;28;20052;-67
2020/12/29 12:38:55;;;;;;;13.23;8.73;;;;;;;;;;5054043;28;20033;-64
2020/12/29 12:41:21;;;;;;;14.33;9.23;;;;;;;;;;5053232;28;20024;-65
2020/12/29 12:43:47;;;;;;;18.57;8.60;;;;;;;;;;5053635;28;20021;-65
2020/12/29 12:46:14;;;;;;;15.73;8.73;;;;;;;;;;5053684;28;20032;-66
2020/12/29 12:48:41;;;;;;;13.93;8.67;;;;;;;;;;5052747;28;20016;-65
2020/12/29 12:51:07;;;;;;;15.33;9.03;;;;;;;;;;5053836;28;20032;-65
2020/12/29 12:53:33;;;;;;;13.93;8.33;;;;;;;;;;5052505;28;20158;-64
2020/12/29 12:55:59;;;;;;;13.20;7.90;;;;;;;;;;5053640;28;20024;-64
2020/12/29 12:58:26;;;;;;;16.17;8.43;;;;;;;;;;5053914;28;20052;-65
2020/12/29 13:00:52;;;;;;;13.93;8.70;;;;;;;;;;5053179;28;20029;-65
2020/12/29 13:03:18;;;;;;;13.37;6.97;;;;;;;;;;5052014;28;20052;-66
2020/12/29 13:05:45;;;;;;;17.03;9.07;;;;;;;;;;5051211;28;20032;-66
2020/12/29 13:08:11;;;;;;;13.13;9.80;;;;;;;;;;5051234;28;20025;-66
2020/12/29 13:10:37;;;;;;;12.37;8.70;;;;;;;;;;5053542;28;20082;-66
2020/12/29 13:13:04;;;;;;;9.77;7.13;;;;;;;;;;5053721;28;20021;-66